Time;durP1;ratioP1;P1;durP2;ratioP2;P2;SDS_P1;SDS_P2;PMS_P1;PMS_P2;Temp;Humidity;BMP_temperature;BMP_pressure;BME280_temperature;BME280_humidity;BME280_pressure;Samples;Min_cycle;Max_cycle;Signal;HPM_P1;HPM_P2
2022/05/26 00:02:05;;;;;;;7.40;1.80;;;15.30;48.80;;;;;;5042165;28;20482;-82
2022/05/26 00:04:33;;;;;;;4.33;1.73;;;15.40;48.90;;;;;;5041628;28;20453;-81
2022/05/26 00:07:00;;;;;;;5.67;1.70;;;15.30;49.70;;;;;;5042251;28;20456;-81
2022/05/26 00:09:27;;;;;;;4.73;1.67;;;15.20;48.70;;;;;;5041260;28;20456;-81
2022/05/26 00:11:54;;;;;;;6.83;2.00;;;15.30;48.80;;;;;;5040809;28;20477;-81
2022/05/26 00:14:21;;;;;;;4.00;1.60;;;15.30;48.80;;;;;;5042627;28;20449;-81
2022/05/26 00:16:48;;;;;;;3.97;1.43;;;15.30;48.90;;;;;;5041838;28;20459;-81
2022/05/26 00:19:18;;;;;;;5.90;1.70;;;15.20;49.50;;;;;;5041054;28;20528;-81
2022/05/26 00:21:47;;;;;;;4.10;1.70;;;15.20;48.70;;;;;;5040862;28;20518;-81
2022/05/26 00:24:14;;;;;;;8.80;1.57;;;15.10;50.30;;;;;;5042574;28;20855;-82
2022/05/26 00:26:41;;;;;;;6.30;1.50;;;15.20;49.90;;;;;;5041183;28;20450;-81
2022/05/26 00:29:08;;;;;;;3.93;1.20;;;15.10;49.60;;;;;;5040820;28;20459;-82
2022/05/26 00:31:35;;;;;;;4.57;1.37;;;15.20;50.30;;;;;;5039855;28;20558;-81
2022/05/26 00:34:01;;;;;;;7.57;1.50;;;15.20;50.20;;;;;;5040183;28;20456;-81
2022/05/26 00:36:41;;;;;;;4.00;1.23;;;15.10;50.20;;;;;;5039239;28;20475;-82
2022/05/26 00:39:09;;;;;;;4.07;1.50;;;15.20;50.80;;;;;;5039841;28;20461;-81
2022/05/26 00:41:40;;;;;;;4.27;1.50;;;15.20;51.50;;;;;;5039604;28;20484;-81
2022/05/26 00:44:07;;;;;;;9.10;1.50;;;15.20;51.20;;;;;;5040458;28;20486;-81
2022/05/26 00:46:39;;;;;;;4.50;1.53;;;15.20;50.90;;;;;;5041237;28;20452;-81
2022/05/26 00:49:12;;;;;;;3.73;1.43;;;15.30;51.30;;;;;;5040303;28;20487;-81
2022/05/26 00:51:40;;;;;;;4.83;1.20;;;15.30;51.70;;;;;;5040523;28;20480;-81
2022/05/26 00:54:10;;;;;;;4.27;1.47;;;15.20;51.90;;;;;;5040466;28;20449;-83
2022/05/26 00:56:44;;;;;;;4.40;1.20;;;15.30;51.90;;;;;;5040605;28;20503;-81
2022/05/26 00:59:15;;;;;;;3.70;1.40;;;15.30;51.40;;;;;;5038266;28;20457;-82
2022/05/26 01:01:42;;;;;;;4.13;1.50;;;15.30;51.50;;;;;;5038954;28;20465;-81
2022/05/26 01:04:16;;;;;;;4.93;1.43;;;15.30;51.30;;;;;;5038120;28;20449;-81
2022/05/26 01:06:47;;;;;;;5.73;1.43;;;15.30;51.80;;;;;;5038889;28;20887;-80
2022/05/26 01:09:15;;;;;;;4.30;1.40;;;15.30;52.70;;;;;;5037651;28;20455;-82
2022/05/26 01:11:43;;;;;;;4.97;1.60;;;15.30;52.40;;;;;;5038519;28;20469;-80
2022/05/26 01:14:15;;;;;;;5.87;1.60;;;15.30;52.70;;;;;;5038695;28;20453;-81
2022/05/26 01:16:48;;;;;;;7.67;1.63;;;15.20;53.70;;;;;;5038780;28;20480;-81
2022/05/26 01:19:39;;;;;;;4.73;1.80;;;15.20;53.90;;;;;;5036852;28;20450;-80
2022/05/26 01:22:21;;;;;;;5.47;1.60;;;15.30;53.80;;;;;;5036548;28;20507;-80
2022/05/26 01:25:09;;;;;;;3.73;1.30;;;15.30;54.00;;;;;;5036829;28;20455;-80
2022/05/26 01:27:37;;;;;;;9.70;1.47;;;15.30;55.00;;;;;;5037080;28;20457;-80
2022/05/26 01:30:24;;;;;;;7.57;1.60;;;15.20;54.00;;;;;;5035568;28;20457;-80
2022/05/26 01:33:20;;;;;;;4.63;1.63;;;15.20;53.80;;;;;;5036737;28;20478;-81
2022/05/26 01:36:00;;;;;;;4.00;1.47;;;15.30;55.10;;;;;;5016859;28;20504;-80
2022/05/26 01:38:37;;;;;;;3.90;1.40;;;15.20;55.70;;;;;;5019746;28;20465;-80
2022/05/26 01:41:13;;;;;;;3.60;1.43;;;15.20;55.70;;;;;;5038760;28;20449;-81
2022/05/26 01:43:47;;;;;;;3.87;1.13;;;15.20;56.00;;;;;;5039184;28;20453;-81
2022/05/26 01:46:29;;;;;;;4.80;1.43;;;15.10;56.20;;;;;;5038982;28;20437;-81
2022/05/26 01:49:04;;;;;;;3.70;1.43;;;15.10;56.40;;;;;;5037883;28;20510;-81
2022/05/26 01:51:34;;;;;;;4.07;1.40;;;15.10;56.60;;;;;;5039182;28;20845;-81
2022/05/26 01:54:10;;;;;;;5.73;1.50;;;15.10;57.30;;;;;;5039143;28;20453;-81
2022/05/26 01:56:44;;;;;;;3.90;1.40;;;15.00;57.30;;;;;;5039103;28;20483;-81
2022/05/26 01:59:15;;;;;;;6.73;1.30;;;15.20;58.70;;;;;;5040557;28;20479;-81
2022/05/26 02:01:46;;;;;;;8.13;1.60;;;15.10;59.60;;;;;;5042199;28;20487;-80
2022/05/26 02:04:19;;;;;;;4.00;1.40;;;15.10;60.00;;;;;;5041434;28;20982;-80
2022/05/26 02:06:51;;;;;;;4.20;1.47;;;15.10;60.80;;;;;;5040175;28;20460;-81
2022/05/26 02:09:22;;;;;;;4.43;1.50;;;15.00;61.00;;;;;;5038685;28;20452;-81
2022/05/26 02:11:54;;;;;;;3.80;1.40;;;15.10;62.30;;;;;;5039179;28;20492;-80
2022/05/26 02:14:28;;;;;;;4.20;1.70;;;15.10;62.90;;;;;;5038142;28;20452;-80
2022/05/26 02:16:59;;;;;;;3.93;1.70;;;15.10;62.80;;;;;;5038350;28;20484;-81
2022/05/26 02:19:33;;;;;;;5.60;1.40;;;15.20;63.50;;;;;;5039390;28;21005;-81
2022/05/26 02:22:08;;;;;;;4.13;1.67;;;15.10;64.20;;;;;;5038314;28;20480;-81
2022/05/26 02:24:38;;;;;;;6.70;1.70;;;15.10;64.20;;;;;;5037970;28;20467;-81
2022/05/26 02:27:09;;;;;;;5.57;1.67;;;15.10;64.80;;;;;;5038158;28;20484;-81
2022/05/26 02:29:56;;;;;;;5.13;1.70;;;15.10;65.60;;;;;;5037973;28;20453;-80
2022/05/26 02:32:27;;;;;;;7.20;1.57;;;15.10;65.00;;;;;;5039815;28;20838;-82
2022/05/26 02:34:58;;;;;;;5.77;1.70;;;15.30;64.90;;;;;;5040132;28;20448;-81
2022/05/26 02:37:26;;;;;;;4.50;1.77;;;15.10;65.60;;;;;;5039949;28;20455;-81
2022/05/26 02:39:54;;;;;;;6.40;1.57;;;15.10;65.60;;;;;;5039642;28;20447;-81
2022/05/26 02:42:24;;;;;;;4.23;1.80;;;15.10;65.60;;;;;;5040788;28;20463;-81
2022/05/26 02:44:51;;;;;;;4.73;1.77;;;15.10;65.60;;;;;;5040356;28;21120;-80
2022/05/26 02:47:43;;;;;;;5.40;2.07;;;15.10;66.00;;;;;;5039819;28;20456;-81
2022/05/26 02:50:36;;;;;;;5.27;1.90;;;15.00;67.10;;;;;;5037500;28;20446;-81
2022/05/26 02:53:10;;;;;;;6.00;1.73;;;15.00;66.20;;;;;;5026551;28;20479;-81
2022/05/26 02:55:50;;;;;;;4.60;1.97;;;15.10;68.20;;;;;;5035805;28;20484;-80
2022/05/26 02:58:27;;;;;;;5.40;2.37;;;15.00;68.30;;;;;;5034046;28;20453;-80
2022/05/26 03:00:59;;;;;;;4.53;2.00;;;14.90;68.80;;;;;;5037763;28;20453;-80
2022/05/26 03:03:33;;;;;;;4.27;2.03;;;14.90;69.00;;;;;;5040169;28;20476;-82
2022/05/26 03:06:08;;;;;;;4.10;2.30;;;15.00;69.30;;;;;;5039856;28;20444;-81
2022/05/26 03:08:39;;;;;;;8.87;2.43;;;15.00;69.80;;;;;;5041519;28;20460;-83
2022/05/26 03:11:08;;;;;;;6.97;2.40;;;14.90;70.50;;;;;;5044949;28;20479;-83
2022/05/26 03:13:36;;;;;;;4.53;2.30;;;14.80;70.80;;;;;;5045424;28;20457;-85
2022/05/26 03:16:03;;;;;;;6.37;2.40;;;14.80;71.80;;;;;;5044956;28;20568;-80
2022/05/26 03:18:31;;;;;;;5.37;2.57;;;14.80;71.70;;;;;;5042917;28;20449;-81
2022/05/26 03:20:59;;;;;;;5.00;2.70;;;14.70;73.30;;;;;;5039920;28;20480;-80
2022/05/26 03:23:27;;;;;;;8.10;2.90;;;14.80;73.40;;;;;;5038540;28;20472;-83
2022/05/26 03:25:55;;;;;;;5.80;3.10;;;14.80;73.40;;;;;;5042656;28;20457;-81
2022/05/26 03:28:22;;;;;;;6.13;2.77;;;15.00;73.60;;;;;;5039471;28;20499;-81
2022/05/26 03:30:49;;;;;;;7.00;2.80;;;14.80;73.40;;;;;;5025750;28;20453;-81
2022/05/26 03:33:16;;;;;;;10.97;3.33;;;14.70;74.20;;;;;;5020013;28;20530;-80
2022/05/26 03:41:27;;;;;;;6.87;3.30;;;14.80;76.00;;;;;;4960053;28;20487;-81
2022/05/26 03:44:00;;;;;;;4.80;3.00;;;14.90;76.70;;;;;;5001320;28;20440;-80
2022/05/26 03:46:27;;;;;;;9.60;4.30;;;14.80;76.80;;;;;;5042589;28;21092;-80
2022/05/26 03:48:54;;;;;;;6.80;3.00;;;14.80;77.60;;;;;;5039179;28;20453;-81
2022/05/26 03:51:20;;;;;;;8.23;4.37;;;14.80;78.50;;;;;;5040501;28;20511;-83
2022/05/26 03:53:49;;;;;;;7.53;3.87;;;14.70;77.40;;;;;;5047131;28;20444;-83
2022/05/26 03:56:16;;;;;;;8.10;3.23;;;14.80;78.50;;;;;;5044694;28;20563;-81
2022/05/26 03:58:42;;;;;;;5.90;3.70;;;14.80;78.40;;;;;;5037145;28;20456;-82
2022/05/26 04:01:09;;;;;;;5.30;3.30;;;14.80;78.70;;;;;;5038733;28;20452;-82
2022/05/26 04:03:36;;;;;;;6.87;4.07;;;14.80;79.30;;;;;;5038704;28;20457;-81
2022/05/26 04:06:03;;;;;;;7.33;3.67;;;14.80;80.10;;;;;;5041295;28;20453;-82
2022/05/26 04:08:30;;;;;;;10.03;4.30;;;14.90;81.40;;;;;;5040328;28;20458;-82
2022/05/26 04:10:58;;;;;;;7.67;4.10;;;14.80;81.20;;;;;;5042237;28;20453;-81
2022/05/26 04:13:25;;;;;;;8.10;4.17;;;14.80;81.30;;;;;;5040926;28;20480;-81
2022/05/26 04:15:52;;;;;;;7.43;3.70;;;14.80;81.30;;;;;;5040256;28;20469;-81
2022/05/26 04:18:18;;;;;;;8.83;4.57;;;14.80;81.40;;;;;;5040888;28;20457;-81
2022/05/26 04:20:45;;;;;;;11.87;5.00;;;14.80;83.00;;;;;;5040556;28;20460;-81
2022/05/26 04:23:12;;;;;;;16.03;5.13;;;14.70;82.70;;;;;;5039303;28;20467;-81
2022/05/26 04:25:39;;;;;;;9.00;5.10;;;14.80;85.20;;;;;;5038695;28;20457;-81
2022/05/26 04:28:07;;;;;;;12.70;5.93;;;14.60;86.30;;;;;;5038526;28;20452;-80
2022/05/26 04:30:34;;;;;;;8.67;5.27;;;14.60;88.60;;;;;;5037399;28;20452;-81
2022/05/26 04:33:00;;;;;;;16.40;6.30;;;14.60;89.50;;;;;;5041046;28;20480;-81
2022/05/26 04:35:27;;;;;;;9.20;5.10;;;14.60;90.40;;;;;;5042348;28;20452;-81
2022/05/26 04:37:54;;;;;;;10.43;6.13;;;14.60;88.80;;;;;;5042577;28;20491;-81
2022/05/26 04:40:21;;;;;;;9.83;5.37;;;14.60;89.10;;;;;;5039928;28;20830;-80
2022/05/26 04:42:48;;;;;;;7.40;4.90;;;14.80;88.50;;;;;;5042272;28;20476;-81
2022/05/26 04:45:16;;;;;;;11.93;5.77;;;14.70;86.70;;;;;;5043419;28;20829;-81
2022/05/26 04:47:42;;;;;;;10.80;5.40;;;14.80;86.40;;;;;;5042740;28;20453;-81
2022/05/26 04:50:11;;;;;;;20.27;6.07;;;14.90;86.40;;;;;;5042966;28;20460;-81
2022/05/26 04:52:38;;;;;;;10.33;6.77;;;14.90;84.60;;;;;;5040648;28;20468;-81
2022/05/26 04:55:06;;;;;;;9.60;4.90;;;15.00;83.50;;;;;;5040202;28;20449;-82
2022/05/26 04:57:33;;;;;;;6.93;4.90;;;15.10;82.40;;;;;;5036024;28;20468;-82
2022/05/26 05:00:00;;;;;;;9.80;5.03;;;15.10;82.70;;;;;;5037566;28;20865;-80
2022/05/26 05:02:30;;;;;;;10.87;4.60;;;15.10;83.10;;;;;;5037891;28;20476;-81
2022/05/26 05:04:57;;;;;;;10.53;4.87;;;15.10;81.60;;;;;;5035770;28;20459;-80
2022/05/26 05:07:23;;;;;;;15.17;5.30;;;15.20;81.70;;;;;;5036479;28;20450;-81
2022/05/26 05:09:50;;;;;;;10.27;4.00;;;15.20;81.70;;;;;;5036327;28;20450;-80
2022/05/26 05:12:19;;;;;;;13.77;5.43;;;15.20;81.60;;;;;;5037351;28;20485;-78
2022/05/26 05:14:50;;;;;;;15.33;5.40;;;15.30;81.80;;;;;;5016784;28;20551;-80
2022/05/26 05:17:21;;;;;;;10.10;5.00;;;15.30;81.80;;;;;;5024278;28;20466;-81
2022/05/26 05:19:50;;;;;;;8.20;4.60;;;15.30;80.60;;;;;;5037238;28;20536;-81
2022/05/26 05:22:20;;;;;;;15.00;4.30;;;15.30;80.70;;;;;;5036722;28;20853;-81
2022/05/26 05:24:52;;;;;;;10.20;4.60;;;15.40;81.10;;;;;;5037832;28;21040;-81
2022/05/26 05:27:27;;;;;;;10.83;4.30;;;15.50;79.70;;;;;;5041668;28;20513;-81
2022/05/26 05:29:56;;;;;;;13.73;4.67;;;15.50;79.20;;;;;;5038043;28;20452;-81
2022/05/26 05:32:28;;;;;;;15.47;5.33;;;15.50;78.80;;;;;;5037943;28;20475;-82
2022/05/26 05:35:02;;;;;;;11.10;4.23;;;15.60;79.80;;;;;;5040180;28;20450;-82
2022/05/26 05:37:31;;;;;;;11.60;4.67;;;15.60;79.10;;;;;;5035069;28;20868;-83
2022/05/26 05:39:58;;;;;;;7.00;3.80;;;15.60;78.50;;;;;;5034488;28;20460;-81
2022/05/26 05:42:25;;;;;;;12.53;5.07;;;15.50;80.00;;;;;;5036135;28;20485;-80
2022/05/26 05:44:52;;;;;;;10.47;4.10;;;15.40;79.10;;;;;;5034908;28;20463;-81
2022/05/26 05:47:18;;;;;;;14.40;4.27;;;15.40;79.90;;;;;;5034622;28;20465;-81
2022/05/26 05:49:45;;;;;;;13.90;4.87;;;15.30;81.30;;;;;;5035602;28;20457;-81
2022/05/26 05:52:18;;;;;;;12.77;6.10;;;15.30;81.80;;;;;;5030312;28;20466;-83
2022/05/26 05:54:45;;;;;;;11.20;4.70;;;15.60;81.10;;;;;;5035364;28;20460;-81
2022/05/26 05:57:12;;;;;;;10.70;5.50;;;15.50;81.20;;;;;;5035284;28;20478;-82
2022/05/26 05:59:39;;;;;;;13.70;5.00;;;15.90;79.40;;;;;;5033571;28;20455;-81
2022/05/26 06:02:08;;;;;;;9.30;4.70;;;16.20;75.00;;;;;;5034512;28;20480;-81
2022/05/26 06:04:41;;;;;;;10.30;4.77;;;16.50;71.80;;;;;;5034610;28;21409;-82
2022/05/26 06:07:08;;;;;;;16.93;6.07;;;16.80;67.40;;;;;;5032744;28;20470;-81
2022/05/26 06:09:37;;;;;;;9.00;4.97;;;16.70;64.80;;;;;;5033451;28;20457;-80
2022/05/26 06:12:05;;;;;;;13.60;4.77;;;16.90;66.40;;;;;;5019801;28;20489;-81
2022/05/26 06:14:32;;;;;;;15.03;5.33;;;17.30;64.10;;;;;;5017614;28;20460;-80
2022/05/26 06:16:58;;;;;;;12.30;5.13;;;17.50;58.70;;;;;;5032331;28;20480;-80
2022/05/26 06:19:25;;;;;;;13.60;5.23;;;17.50;58.70;;;;;;5032484;28;20451;-82
2022/05/26 06:21:52;;;;;;;13.30;5.47;;;17.70;59.20;;;;;;5032154;28;20483;-82
2022/05/26 06:24:22;;;;;;;11.67;5.97;;;18.30;57.60;;;;;;5032482;28;20454;-82
2022/05/26 06:26:50;;;;;;;11.90;3.97;;;18.20;54.50;;;;;;5033462;28;20467;-81
2022/05/26 06:37:31;;;;;;;16.80;5.10;;;17.70;57.00;;;;;;5033070;28;20481;-80
2022/05/26 06:39:58;;;;;;;9.90;4.30;;;17.60;56.30;;;;;;5033683;28;20465;-80
2022/05/26 06:42:26;;;;;;;8.47;4.67;;;17.70;57.90;;;;;;5034252;28;20847;-81
2022/05/26 06:44:53;;;;;;;13.17;5.20;;;17.60;56.90;;;;;;5035655;28;20975;-81
2022/05/26 06:47:22;;;;;;;10.93;4.90;;;17.80;57.60;;;;;;5033792;28;20455;-80
2022/05/26 06:49:50;;;;;;;12.13;5.38;;;17.90;55.60;;;;;;5034749;28;20540;-81
2022/05/26 06:52:18;;;;;;;15.07;5.07;;;18.10;56.30;;;;;;5036213;28;20719;-81
2022/05/26 06:54:46;;;;;;;17.53;5.40;;;18.90;53.70;;;;;;5036626;28;20460;-81
2022/05/26 06:57:15;;;;;;;10.60;5.33;;;19.40;52.70;;;;;;5034003;28;20481;-81
2022/05/26 06:59:43;;;;;;;11.93;5.70;;;19.70;46.80;;;;;;5034103;28;20466;-81
2022/05/26 07:02:12;;;;;;;10.83;4.90;;;19.30;46.00;;;;;;5034813;28;20487;-81
2022/05/26 07:04:39;;;;;;;9.30;4.30;;;19.20;47.50;;;;;;5035714;28;20454;-80
2022/05/26 07:07:06;;;;;;;13.70;4.20;;;18.80;48.00;;;;;;5035354;28;20454;-82
2022/05/26 07:09:33;;;;;;;15.43;4.70;;;18.80;48.60;;;;;;5035074;28;20462;-81
2022/05/26 07:12:00;;;;;;;11.53;4.30;;;18.30;48.10;;;;;;5035377;28;21011;-81
2022/05/26 07:14:28;;;;;;;11.20;4.50;;;18.50;48.10;;;;;;5035552;28;20468;-81
2022/05/26 07:16:56;;;;;;;10.53;4.27;;;18.40;49.10;;;;;;5034884;28;20481;-82
2022/05/26 07:19:24;;;;;;;11.87;4.87;;;18.60;48.90;;;;;;5035941;28;20460;-81
2022/05/26 07:21:51;;;;;;;8.87;4.20;;;18.30;50.60;;;;;;5035215;28;21060;-82
2022/05/26 07:24:20;;;;;;;11.03;5.20;;;18.80;51.00;;;;;;5037912;28;20518;-83
2022/05/26 07:26:48;;;;;;;9.13;4.23;;;18.80;49.50;;;;;;5036300;28;20480;-79
2022/05/26 07:29:19;;;;;;;13.63;5.87;;;18.60;47.50;;;;;;5035405;28;20451;-79
2022/05/26 07:31:49;;;;;;;15.30;5.20;;;18.30;48.30;;;;;;5034928;28;20475;-80
2022/05/26 07:34:18;;;;;;;7.77;4.47;;;18.70;49.30;;;;;;5034616;28;20533;-81
2022/05/26 07:42:24;;;;;;;13.17;5.20;;;19.10;43.50;;;;;;5041236;28;20539;-81
2022/05/26 07:44:55;;;;;;;8.60;4.33;;;19.40;43.90;;;;;;5040883;28;20544;-80
2022/05/26 07:47:27;;;;;;;13.77;4.90;;;19.30;43.70;;;;;;5041275;28;20458;-80
2022/05/26 07:50:03;;;;;;;10.70;4.80;;;19.10;41.50;;;;;;5041033;28;20459;-81
2022/05/26 07:52:30;;;;;;;11.37;4.73;;;19.00;41.10;;;;;;5038635;28;20479;-80
2022/05/26 07:54:58;;;;;;;9.53;4.53;;;19.10;42.60;;;;;;5038490;28;20543;-80
2022/05/26 07:57:29;;;;;;;9.33;4.47;;;19.90;44.30;;;;;;5037403;28;20529;-79
2022/05/26 08:00:04;;;;;;;15.40;5.40;;;19.70;38.20;;;;;;5038860;28;20465;-80
2022/05/26 08:02:31;;;;;;;10.40;4.03;;;20.40;38.60;;;;;;5040607;28;20562;-80
2022/05/26 08:04:59;;;;;;;12.53;4.10;;;20.50;35.90;;;;;;5040158;28;20463;-81
2022/05/26 08:07:32;;;;;;;10.00;4.30;;;20.60;34.30;;;;;;5035991;28;20511;-78
2022/05/26 08:09:59;;;;;;;9.30;3.67;;;20.10;35.90;;;;;;5039432;28;20483;-80
2022/05/26 08:12:26;;;;;;;8.47;4.10;;;19.50;37.80;;;;;;5039132;28;20492;-79
2022/05/26 08:14:53;;;;;;;7.13;3.43;;;20.10;40.10;;;;;;5039157;28;20457;-81
2022/05/26 08:17:22;;;;;;;7.50;3.67;;;20.60;35.90;;;;;;5039363;28;20480;-80
2022/05/26 08:19:54;;;;;;;6.73;2.90;;;21.30;36.80;;;;;;5038944;28;20787;-80
2022/05/26 08:22:23;;;;;;;10.30;3.63;;;21.30;32.00;;;;;;5039896;28;20477;-81
2022/05/26 08:24:51;;;;;;;7.10;3.70;;;21.50;30.50;;;;;;5039647;28;20492;-80
2022/05/26 08:27:18;;;;;;;9.90;3.83;;;22.80;30.60;;;;;;5038940;28;20478;-82
2022/05/26 08:29:51;;;;;;;9.03;3.37;;;23.10;27.60;;;;;;5038830;28;20535;-81
2022/05/26 08:32:20;;;;;;;11.43;3.57;;;21.90;26.60;;;;;;5039314;28;20468;-81
2022/05/26 08:34:47;;;;;;;10.20;3.57;;;21.90;28.40;;;;;;5038811;28;20465;-81
2022/05/26 08:37:14;;;;;;;14.57;4.57;;;22.20;27.90;;;;;;5039919;28;20587;-81
2022/05/26 08:39:43;;;;;;;10.33;4.30;;;21.50;28.10;;;;;;5039468;28;20454;-81
2022/05/26 08:42:17;;;;;;;8.73;3.90;;;21.10;28.50;;;;;;5040006;28;20474;-80
2022/05/26 08:44:44;;;;;;;16.93;4.17;;;20.70;30.40;;;;;;5039226;28;20452;-81
2022/05/26 08:47:14;;;;;;;9.50;3.80;;;20.40;32.10;;;;;;5039475;28;20451;-81
2022/05/26 08:49:43;;;;;;;10.30;4.30;;;20.40;34.20;;;;;;5038084;28;20453;-82
2022/05/26 08:52:18;;;;;;;7.70;4.50;;;20.50;31.80;;;;;;5038839;28;20483;-80
2022/05/26 08:55:02;;;;;;;8.37;3.30;;;20.20;30.80;;;;;;5039716;28;20446;-81
2022/05/26 08:57:37;;;;;;;13.10;3.70;;;20.30;31.50;;;;;;5039669;28;20473;-81
2022/05/26 09:00:05;;;;;;;11.30;3.60;;;20.00;32.70;;;;;;5039026;28;20537;-81
2022/05/26 09:02:35;;;;;;;11.27;4.83;;;20.20;33.40;;;;;;5039116;28;20539;-82
2022/05/26 09:05:06;;;;;;;10.93;3.97;;;20.20;33.00;;;;;;5039817;28;20455;-81
2022/05/26 09:13:12;;;;;;;12.60;3.93;;;19.90;34.70;;;;;;5037466;28;20550;-81
2022/05/26 09:15:40;;;;;;;9.03;3.40;;;21.20;33.30;;;;;;5038776;28;20462;-81
2022/05/26 09:18:15;;;;;;;12.23;3.67;;;20.60;27.40;;;;;;5038650;28;20479;-80
2022/05/26 09:20:44;;;;;;;11.33;3.10;;;20.30;29.10;;;;;;5039169;28;21006;-80
2022/05/26 09:23:14;;;;;;;9.70;3.97;;;19.80;31.10;;;;;;5039288;28;20517;-81
2022/05/26 09:25:47;;;;;;;11.73;3.50;;;20.20;30.60;;;;;;5038869;28;20443;-80
2022/05/26 09:28:28;;;;;;;10.07;3.57;;;21.20;32.40;;;;;;5038793;28;20466;-81
2022/05/26 09:30:56;;;;;;;14.83;3.70;;;21.60;28.40;;;;;;5038608;28;20481;-81
2022/05/26 09:33:29;;;;;;;6.60;2.90;;;22.10;24.70;;;;;;5038304;28;20475;-81
2022/05/26 09:36:15;;;;;;;8.93;3.33;;;22.90;25.90;;;;;;5038559;28;20427;-81
2022/05/26 09:38:51;;;;;;;8.17;2.80;;;23.60;22.30;;;;;;5038673;28;20495;-81
2022/05/26 09:41:28;;;;;;;9.10;3.17;;;24.40;18.80;;;;;;5037337;28;20458;-81
2022/05/26 09:44:06;;;;;;;7.90;3.00;;;23.40;17.70;;;;;;5037536;28;20515;-80
2022/05/26 09:46:39;;;;;;;10.00;3.20;;;22.60;21.60;;;;;;5038533;28;20555;-81
2022/05/26 09:49:13;;;;;;;7.67;2.40;;;22.90;21.80;;;;;;5037988;28;20451;-81
2022/05/26 09:51:52;;;;;;;11.03;2.90;;;23.30;18.40;;;;;;5037709;28;20479;-81
2022/05/26 09:54:25;;;;;;;7.60;2.83;;;23.50;20.40;;;;;;5038672;28;20506;-81
2022/05/26 09:56:54;;;;;;;10.93;2.83;;;23.90;19.30;;;;;;5037940;28;20460;-81
2022/05/26 09:59:27;;;;;;;7.97;3.37;;;24.70;15.60;;;;;;5037898;28;20507;-81
2022/05/26 10:02:03;;;;;;;7.10;2.63;;;24.90;13.50;;;;;;5037439;28;20486;-81
2022/05/26 10:04:55;;;;;;;10.30;2.37;;;25.30;11.90;;;;;;5038109;28;20828;-81
2022/05/26 10:07:28;;;;;;;6.30;1.93;;;24.80;11.90;;;;;;5037879;28;20456;-80
2022/05/26 10:10:01;;;;;;;6.20;2.40;;;24.00;11.40;;;;;;5037242;28;20826;-80
2022/05/26 10:12:50;;;;;;;5.10;2.03;;;23.70;14.60;;;;;;5037260;28;20551;-79
2022/05/26 10:15:32;;;;;;;6.80;2.43;;;23.00;14.40;;;;;;5038576;28;20453;-81
2022/05/26 10:18:24;;;;;;;5.07;2.00;;;22.10;16.60;;;;;;5037326;28;20905;-81
2022/05/26 10:21:04;;;;;;;7.20;2.03;;;21.90;17.90;;;;;;5038044;28;20482;-81
2022/05/26 10:23:47;;;;;;;10.30;2.10;;;21.70;16.50;;;;;;5038544;28;20482;-81
2022/05/26 10:26:25;;;;;;;13.50;2.30;;;21.40;16.60;;;;;;5038670;28;20433;-80
2022/05/26 10:29:14;;;;;;;9.43;2.30;;;22.00;19.00;;;;;;5037911;28;20489;-81
2022/05/26 10:31:54;;;;;;;7.40;2.90;;;21.80;18.10;;;;;;5037898;28;21054;-82
2022/05/26 10:34:36;;;;;;;8.87;2.53;;;21.80;17.80;;;;;;5037796;28;20969;-80
2022/05/26 10:37:13;;;;;;;7.27;2.43;;;21.30;18.20;;;;;;5038252;28;20971;-81
2022/05/26 10:40:02;;;;;;;8.60;2.60;;;21.40;21.10;;;;;;5037403;28;20438;-81
2022/05/26 10:42:33;;;;;;;6.20;2.30;;;21.20;20.70;;;;;;5037831;28;20485;-81
2022/05/26 10:45:13;;;;;;;7.13;2.50;;;21.50;19.10;;;;;;5037968;28;20469;-82
2022/05/26 10:47:46;;;;;;;9.60;2.83;;;21.70;16.10;;;;;;5037935;28;20465;-80
2022/05/26 10:50:25;;;;;;;5.60;2.03;;;22.10;20.50;;;;;;5038358;28;20442;-81
2022/05/26 10:52:57;;;;;;;4.73;1.90;;;23.00;15.30;;;;;;5037788;28;20483;-83
2022/05/26 10:55:34;;;;;;;7.73;1.83;;;23.50;11.60;;;;;;5037544;28;20459;-81
2022/05/26 10:58:06;;;;;;;10.23;2.40;;;24.40;11.60;;;;;;5038636;28;21039;-81
2022/05/26 11:00:34;;;;;;;6.97;2.13;;;23.90;11.60;;;;;;5037101;28;20460;-79
2022/05/26 11:03:11;;;;;;;6.80;2.83;;;23.70;9.80;;;;;;5037939;28;20993;-81
2022/05/26 11:05:41;;;;;;;5.63;2.40;;;23.10;11.20;;;;;;5036591;28;20456;-81
2022/05/26 11:08:19;;;;;;;11.23;2.43;;;22.90;13.30;;;;;;5036885;28;20475;-81
2022/05/26 11:11:03;;;;;;;9.60;1.73;;;23.00;15.10;;;;;;5037524;28;20944;-84
2022/05/26 11:13:41;;;;;;;13.00;2.37;;;23.30;11.80;;;;;;5067952;22;21027;-83
2022/05/26 11:19:06;;;;;;;7.80;1.70;;;23.30;13.40;;;;;;5058022;28;20845;-84
2022/05/26 11:21:33;;;;;;;8.90;2.10;;;23.40;9.00;;;;;;5060101;28;20462;-85
2022/05/26 11:23:59;;;;;;;5.10;1.67;;;23.10;6.80;;;;;;5073774;28;20505;-85
2022/05/26 11:26:34;;;;;;;6.83;1.77;;;22.30;10.90;;;;;;5080918;28;20454;-85
2022/05/26 11:29:09;;;;;;;6.23;2.40;;;22.10;12.20;;;;;;5080716;28;20460;-85
2022/05/26 11:37:29;;;;;;;5.70;2.23;;;23.70;8.10;;;;;;5081253;28;20440;-84
2022/05/26 11:39:59;;;;;;;6.77;1.93;;;22.30;8.60;;;;;;5079249;28;20542;-84
2022/05/26 11:42:37;;;;;;;7.10;2.40;;;21.50;13.00;;;;;;5080642;28;20459;-86
2022/05/26 11:45:20;;;;;;;6.77;1.97;;;20.90;16.20;;;;;;5077811;28;20446;-85
2022/05/26 11:47:57;;;;;;;4.77;1.50;;;20.60;16.10;;;;;;5079262;28;20487;-84
2022/05/26 11:50:46;;;;;;;5.60;1.90;;;20.40;16.10;;;;;;5079071;28;20457;-85
2022/05/26 11:53:35;;;;;;;11.93;2.77;;;20.40;16.60;;;;;;5078783;28;20470;-85
2022/05/26 11:56:04;;;;;;;8.17;2.13;;;20.90;17.60;;;;;;5081542;28;20446;-85
2022/05/26 11:58:37;;;;;;;6.90;2.43;;;21.60;14.90;;;;;;5078398;28;20531;-85
2022/05/26 12:01:13;;;;;;;6.93;2.40;;;22.30;12.90;;;;;;5079358;28;20452;-85
2022/05/26 12:03:52;;;;;;;6.10;1.90;;;22.80;12.70;;;;;;5081170;28;20525;-85
2022/05/26 12:06:34;;;;;;;6.30;2.20;;;22.40;11.60;;;;;;5079537;28;20524;-84
2022/05/26 12:09:02;;;;;;;6.03;2.30;;;22.10;13.70;;;;;;5078720;28;20457;-84
2022/05/26 12:11:53;;;;;;;5.20;2.13;;;21.40;13.70;;;;;;5077714;28;20462;-85
2022/05/26 12:14:23;;;;;;;7.80;2.47;;;21.20;13.10;;;;;;5072629;28;21052;-84
2022/05/26 12:16:50;;;;;;;6.97;2.33;;;21.90;12.40;;;;;;5080681;28;20449;-85
2022/05/26 12:19:41;;;;;;;6.83;2.23;;;23.70;11.60;;;;;;5079539;28;20476;-85
2022/05/26 12:22:23;;;;;;;5.77;1.90;;;24.50;3.70;;;;;;5077712;28;20454;-86
2022/05/26 12:25:00;;;;;;;8.73;2.53;;;24.50;5.50;;;;;;5080464;28;20508;-86
2022/05/26 12:27:56;;;;;;;13.27;2.70;;;24.10;6.20;;;;;;5078123;28;20461;-85
2022/05/26 12:30:58;;;;;;;6.30;2.27;;;22.70;8.30;;;;;;5075996;28;20458;-84
2022/05/26 12:33:41;;;;;;;6.87;2.40;;;22.10;11.00;;;;;;5079876;28;20908;-86
2022/05/26 12:36:19;;;;;;;6.10;2.07;;;21.90;13.60;;;;;;5077533;28;20460;-86
2022/05/26 12:38:59;;;;;;;8.00;1.50;;;21.90;11.30;;;;;;5079984;28;20496;-85
2022/05/26 12:41:36;;;;;;;6.47;2.80;;;22.90;9.40;;;;;;5079639;28;20454;-84
2022/05/26 12:44:22;;;;;;;7.87;2.50;;;24.30;6.50;;;;;;5073863;28;20481;-85
2022/05/26 12:47:01;;;;;;;6.03;1.77;;;24.60;5.10;;;;;;5080975;28;20932;-86
2022/05/26 12:49:54;;;;;;;7.67;2.00;;;24.50;4.70;;;;;;5077159;28;20848;-85
2022/05/26 12:52:32;;;;;;;5.80;2.10;;;25.50;3.30;;;;;;5077156;28;20509;-86
2022/05/26 12:55:16;;;;;;;9.30;2.03;;;26.20;1.00;;;;;;5074008;28;20873;-86
2022/05/26 12:57:48;;;;;;;9.03;1.93;;;25.60;1.00;;;;;;5079451;28;20477;-85
2022/05/26 13:00:28;;;;;;;6.43;1.83;;;26.40;2.80;;;;;;5077358;28;20478;-84
2022/05/26 13:03:00;;;;;;;5.50;1.90;;;25.80;1.00;;;;;;5079010;28;20500;-85
2022/05/26 13:05:28;;;;;;;7.77;2.20;;;26.50;1.00;;;;;;5078523;28;20508;-86
2022/05/26 13:07:57;;;;;;;8.27;1.87;;;26.90;1.00;;;;;;5078342;28;20451;-84
2022/05/26 13:10:26;;;;;;;7.10;1.70;;;26.80;1.00;;;;;;5074148;28;20450;-84
2022/05/26 13:13:34;;;;;;;7.50;2.90;;;26.40;1.00;;;;;;5077401;28;20486;-84
2022/05/26 13:16:30;;;;;;;6.13;2.20;;;27.20;1.00;;;;;;5021827;28;20482;-85
2022/05/26 13:19:09;;;;;;;6.90;2.30;;;27.70;1.00;;;;;;5060646;28;20481;-86
2022/05/26 13:21:36;;;;;;;8.63;2.90;;;27.50;1.00;;;;;;5061758;28;20455;-86
2022/05/26 13:24:12;;;;;;;8.10;2.90;;;27.00;1.00;;;;;;5060238;28;20471;-85
2022/05/26 13:26:39;;;;;;;6.80;2.80;;;27.70;1.00;;;;;;5064102;28;20516;-85
2022/05/26 13:29:44;;;;;;;10.90;3.20;;;28.40;1.00;;;;;;5057483;28;20447;-86
2022/05/26 13:35:19;;;;;;;6.13;2.40;;;27.90;1.00;;;;;;5064943;28;20419;-86
2022/05/26 13:38:07;;;;;;;7.67;2.10;;;28.60;1.00;;;;;;5064603;28;20457;-86
2022/05/26 13:40:36;;;;;;;5.87;2.07;;;28.20;1.00;;;;;;5061239;28;20443;-86
2022/05/26 13:43:03;;;;;;;6.40;2.33;;;28.50;1.00;;;;;;5059809;28;20467;-85
2022/05/26 13:45:33;;;;;;;8.50;2.57;;;28.40;1.00;;;;;;5058672;28;20454;-85
2022/05/26 13:48:29;;;;;;;7.20;2.03;;;27.30;1.00;;;;;;5058864;28;20455;-85
2022/05/26 13:51:02;;;;;;;7.33;2.60;;;27.40;1.00;;;;;;5057728;28;20455;-86